sensor_id;sensor_type;location;lat;lon;timestamp;P1;durP1;ratioP1;P2;durP2;ratioP2
76380;SDS011;65202;52.520;10.528;2023-08-17T00:02:12;11.40;;;3.00;;
76380;SDS011;65202;52.520;10.528;2023-08-17T00:04:40;8.98;;;3.28;;
76380;SDS011;65202;52.520;10.528;2023-08-17T00:07:07;8.93;;;2.97;;
76380;SDS011;65202;52.520;10.528;2023-08-17T00:09:35;7.97;;;3.13;;
76380;SDS011;65202;52.520;10.528;2023-08-17T00:12:02;9.07;;;3.20;;
76380;SDS011;65202;52.520;10.528;2023-08-17T00:14:31;5.30;;;2.70;;
76380;SDS011;65202;52.520;10.528;2023-08-17T00:16:59;10.48;;;3.03;;
76380;SDS011;65202;52.520;10.528;2023-08-17T00:19:26;6.70;;;2.90;;
76380;SDS011;65202;52.520;10.528;2023-08-17T00:21:53;10.75;;;2.45;;
76380;SDS011;65202;52.520;10.528;2023-08-17T00:24:21;11.10;;;3.03;;
76380;SDS011;65202;52.520;10.528;2023-08-17T00:26:49;5.18;;;2.47;;
76380;SDS011;65202;52.520;10.528;2023-08-17T00:29:16;5.78;;;2.50;;
76380;SDS011;65202;52.520;10.528;2023-08-17T00:31:44;5.68;;;2.63;;
76380;SDS011;65202;52.520;10.528;2023-08-17T00:34:11;6.97;;;2.30;;
76380;SDS011;65202;52.520;10.528;2023-08-17T00:36:38;13.32;;;2.58;;
76380;SDS011;65202;52.520;10.528;2023-08-17T00:39:06;9.45;;;2.63;;
76380;SDS011;65202;52.520;10.528;2023-08-17T00:41:33;8.55;;;2.35;;
76380;SDS011;65202;52.520;10.528;2023-08-17T00:44:00;8.00;;;2.50;;
76380;SDS011;65202;52.520;10.528;2023-08-17T00:46:29;7.03;;;2.40;;
76380;SDS011;65202;52.520;10.528;2023-08-17T00:48:57;6.65;;;2.38;;
76380;SDS011;65202;52.520;10.528;2023-08-17T00:51:25;8.38;;;2.30;;
76380;SDS011;65202;52.520;10.528;2023-08-17T00:53:54;9.52;;;2.60;;
76380;SDS011;65202;52.520;10.528;2023-08-17T00:56:25;6.93;;;2.20;;
76380;SDS011;65202;52.520;10.528;2023-08-17T00:58:53;9.65;;;2.72;;
76380;SDS011;65202;52.520;10.528;2023-08-17T01:01:22;11.55;;;2.50;;
76380;SDS011;65202;52.520;10.528;2023-08-17T01:03:50;7.68;;;2.47;;
76380;SDS011;65202;52.520;10.528;2023-08-17T01:06:18;12.88;;;2.45;;
76380;SDS011;65202;52.520;10.528;2023-08-17T01:08:45;7.63;;;2.70;;
76380;SDS011;65202;52.520;10.528;2023-08-17T01:14:18;5.35;;;2.30;;
76380;SDS011;65202;52.520;10.528;2023-08-17T01:19:46;10.27;;;2.63;;
76380;SDS011;65202;52.520;10.528;2023-08-17T01:22:14;8.48;;;2.40;;
76380;SDS011;65202;52.520;10.528;2023-08-17T01:24:47;10.93;;;2.60;;
76380;SDS011;65202;52.520;10.528;2023-08-17T01:27:15;4.65;;;2.20;;
76380;SDS011;65202;52.520;10.528;2023-08-17T01:29:42;8.77;;;2.97;;
76380;SDS011;65202;52.520;10.528;2023-08-17T01:32:11;5.88;;;2.40;;
76380;SDS011;65202;52.520;10.528;2023-08-17T01:34:47;9.82;;;2.78;;
76380;SDS011;65202;52.520;10.528;2023-08-17T01:37:24;10.38;;;3.38;;
76380;SDS011;65202;52.520;10.528;2023-08-17T01:39:58;8.10;;;2.78;;
76380;SDS011;65202;52.520;10.528;2023-08-17T01:42:26;5.63;;;2.55;;
76380;SDS011;65202;52.520;10.528;2023-08-17T01:44:54;8.98;;;3.00;;
76380;SDS011;65202;52.520;10.528;2023-08-17T01:47:22;6.88;;;2.58;;
76380;SDS011;65202;52.520;10.528;2023-08-17T01:49:50;13.43;;;3.08;;
76380;SDS011;65202;52.520;10.528;2023-08-17T01:52:17;10.07;;;2.90;;
76380;SDS011;65202;52.520;10.528;2023-08-17T01:54:45;9.10;;;2.85;;
76380;SDS011;65202;52.520;10.528;2023-08-17T01:57:12;10.02;;;3.00;;
76380;SDS011;65202;52.520;10.528;2023-08-17T01:59:39;9.73;;;2.95;;
76380;SDS011;65202;52.520;10.528;2023-08-17T02:02:06;5.85;;;2.60;;
76380;SDS011;65202;52.520;10.528;2023-08-17T02:04:35;9.63;;;3.30;;
76380;SDS011;65202;52.520;10.528;2023-08-17T02:07:02;8.98;;;3.10;;
76380;SDS011;65202;52.520;10.528;2023-08-17T02:09:30;7.60;;;3.20;;
76380;SDS011;65202;52.520;10.528;2023-08-17T02:11:57;6.20;;;3.28;;
76380;SDS011;65202;52.520;10.528;2023-08-17T02:14:24;11.65;;;3.58;;
76380;SDS011;65202;52.520;10.528;2023-08-17T02:16:52;12.85;;;4.05;;
76380;SDS011;65202;52.520;10.528;2023-08-17T02:19:19;11.98;;;3.85;;
76380;SDS011;65202;52.520;10.528;2023-08-17T02:21:47;11.95;;;3.90;;
76380;SDS011;65202;52.520;10.528;2023-08-17T02:24:14;15.82;;;4.82;;
76380;SDS011;65202;52.520;10.528;2023-08-17T02:26:41;17.77;;;4.88;;
76380;SDS011;65202;52.520;10.528;2023-08-17T02:29:08;13.35;;;4.63;;
76380;SDS011;65202;52.520;10.528;2023-08-17T02:31:36;19.20;;;5.10;;
76380;SDS011;65202;52.520;10.528;2023-08-17T02:34:03;12.30;;;5.03;;
76380;SDS011;65202;52.520;10.528;2023-08-17T02:36:32;14.68;;;5.00;;
76380;SDS011;65202;52.520;10.528;2023-08-17T02:39:02;10.93;;;5.05;;
76380;SDS011;65202;52.520;10.528;2023-08-17T02:41:30;16.77;;;5.68;;
76380;SDS011;65202;52.520;10.528;2023-08-17T02:43:59;19.60;;;5.68;;
76380;SDS011;65202;52.520;10.528;2023-08-17T02:46:27;11.60;;;6.00;;
76380;SDS011;65202;52.520;10.528;2023-08-17T02:48:55;20.67;;;7.82;;
76380;SDS011;65202;52.520;10.528;2023-08-17T02:51:22;14.88;;;6.13;;
76380;SDS011;65202;52.520;10.528;2023-08-17T02:53:49;15.23;;;7.10;;
76380;SDS011;65202;52.520;10.528;2023-08-17T02:56:17;14.07;;;5.78;;
76380;SDS011;65202;52.520;10.528;2023-08-17T02:58:44;11.93;;;6.10;;
76380;SDS011;65202;52.520;10.528;2023-08-17T03:01:11;10.70;;;5.32;;
76380;SDS011;65202;52.520;10.528;2023-08-17T03:03:39;12.88;;;6.20;;
76380;SDS011;65202;52.520;10.528;2023-08-17T03:06:06;11.30;;;5.80;;
76380;SDS011;65202;52.520;10.528;2023-08-17T03:08:34;12.55;;;6.13;;
76380;SDS011;65202;52.520;10.528;2023-08-17T03:11:01;15.50;;;5.65;;
76380;SDS011;65202;52.520;10.528;2023-08-17T03:13:29;9.07;;;5.18;;
76380;SDS011;65202;52.520;10.528;2023-08-17T03:15:56;8.50;;;5.32;;
76380;SDS011;65202;52.520;10.528;2023-08-17T03:18:23;7.82;;;5.43;;
76380;SDS011;65202;52.520;10.528;2023-08-17T03:20:51;12.63;;;5.88;;
76380;SDS011;65202;52.520;10.528;2023-08-17T03:23:18;6.70;;;5.18;;
76380;SDS011;65202;52.520;10.528;2023-08-17T03:25:45;10.07;;;5.40;;
76380;SDS011;65202;52.520;10.528;2023-08-17T03:28:12;8.75;;;5.55;;
76380;SDS011;65202;52.520;10.528;2023-08-17T03:30:39;11.10;;;6.03;;
76380;SDS011;65202;52.520;10.528;2023-08-17T03:33:08;8.88;;;5.30;;
76380;SDS011;65202;52.520;10.528;2023-08-17T03:35:36;10.07;;;5.07;;
76380;SDS011;65202;52.520;10.528;2023-08-17T03:38:03;11.80;;;5.70;;
76380;SDS011;65202;52.520;10.528;2023-08-17T03:40:31;7.78;;;5.38;;
76380;SDS011;65202;52.520;10.528;2023-08-17T03:42:58;7.70;;;5.25;;
76380;SDS011;65202;52.520;10.528;2023-08-17T03:45:25;8.38;;;5.57;;
76380;SDS011;65202;52.520;10.528;2023-08-17T03:47:52;11.55;;;6.00;;
76380;SDS011;65202;52.520;10.528;2023-08-17T03:50:20;9.57;;;5.88;;
76380;SDS011;65202;52.520;10.528;2023-08-17T03:52:47;8.52;;;5.60;;
76380;SDS011;65202;52.520;10.528;2023-08-17T03:55:14;8.13;;;5.88;;
76380;SDS011;65202;52.520;10.528;2023-08-17T03:57:41;9.00;;;5.40;;
76380;SDS011;65202;52.520;10.528;2023-08-17T04:00:08;6.93;;;5.47;;
76380;SDS011;65202;52.520;10.528;2023-08-17T04:02:37;10.63;;;6.05;;
76380;SDS011;65202;52.520;10.528;2023-08-17T04:05:04;9.18;;;5.63;;
76380;SDS011;65202;52.520;10.528;2023-08-17T04:07:32;9.27;;;5.90;;
76380;SDS011;65202;52.520;10.528;2023-08-17T04:09:59;7.88;;;5.28;;
76380;SDS011;65202;52.520;10.528;2023-08-17T04:12:27;12.63;;;6.38;;
76380;SDS011;65202;52.520;10.528;2023-08-17T04:14:54;10.98;;;5.65;;
76380;SDS011;65202;52.520;10.528;2023-08-17T04:17:21;10.18;;;5.57;;
76380;SDS011;65202;52.520;10.528;2023-08-17T04:19:49;11.95;;;6.22;;
76380;SDS011;65202;52.520;10.528;2023-08-17T04:22:16;11.75;;;6.00;;
76380;SDS011;65202;52.520;10.528;2023-08-17T04:24:43;8.95;;;5.95;;
76380;SDS011;65202;52.520;10.528;2023-08-17T04:27:10;8.57;;;6.35;;
76380;SDS011;65202;52.520;10.528;2023-08-17T04:29:39;9.65;;;5.57;;
76380;SDS011;65202;52.520;10.528;2023-08-17T04:32:07;9.35;;;6.03;;
76380;SDS011;65202;52.520;10.528;2023-08-17T04:34:34;15.60;;;6.60;;
76380;SDS011;65202;52.520;10.528;2023-08-17T04:37:02;11.18;;;6.07;;
76380;SDS011;65202;52.520;10.528;2023-08-17T04:39:29;11.00;;;7.00;;
76380;SDS011;65202;52.520;10.528;2023-08-17T04:41:57;10.10;;;6.70;;
76380;SDS011;65202;52.520;10.528;2023-08-17T04:44:25;9.48;;;5.88;;
76380;SDS011;65202;52.520;10.528;2023-08-17T04:46:52;9.07;;;6.28;;
76380;SDS011;65202;52.520;10.528;2023-08-17T04:49:19;9.65;;;6.50;;
76380;SDS011;65202;52.520;10.528;2023-08-17T04:51:46;10.23;;;6.38;;
76380;SDS011;65202;52.520;10.528;2023-08-17T04:54:14;8.07;;;6.50;;
76380;SDS011;65202;52.520;10.528;2023-08-17T04:56:41;7.53;;;5.80;;
76380;SDS011;65202;52.520;10.528;2023-08-17T04:59:10;8.30;;;5.78;;
76380;SDS011;65202;52.520;10.528;2023-08-17T05:01:37;10.13;;;6.20;;
76380;SDS011;65202;52.520;10.528;2023-08-17T05:04:08;7.47;;;5.82;;
76380;SDS011;65202;52.520;10.528;2023-08-17T05:06:35;10.55;;;5.45;;
76380;SDS011;65202;52.520;10.528;2023-08-17T05:09:05;10.88;;;5.78;;
76380;SDS011;65202;52.520;10.528;2023-08-17T05:11:33;7.93;;;5.88;;
76380;SDS011;65202;52.520;10.528;2023-08-17T05:14:00;7.05;;;5.43;;
76380;SDS011;65202;52.520;10.528;2023-08-17T05:16:27;9.23;;;4.95;;
76380;SDS011;65202;52.520;10.528;2023-08-17T05:18:54;5.90;;;4.80;;
76380;SDS011;65202;52.520;10.528;2023-08-17T05:21:22;9.00;;;5.50;;
76380;SDS011;65202;52.520;10.528;2023-08-17T05:23:50;10.30;;;4.82;;
76380;SDS011;65202;52.520;10.528;2023-08-17T05:26:17;7.68;;;5.10;;
76380;SDS011;65202;52.520;10.528;2023-08-17T05:28:44;6.80;;;4.80;;
76380;SDS011;65202;52.520;10.528;2023-08-17T05:31:12;5.78;;;4.88;;
76380;SDS011;65202;52.520;10.528;2023-08-17T05:33:39;8.65;;;5.03;;
76380;SDS011;65202;52.520;10.528;2023-08-17T05:36:09;7.03;;;4.50;;
76380;SDS011;65202;52.520;10.528;2023-08-17T05:38:37;5.68;;;4.50;;
76380;SDS011;65202;52.520;10.528;2023-08-17T05:41:04;7.35;;;4.82;;
76380;SDS011;65202;52.520;10.528;2023-08-17T05:43:32;10.07;;;5.25;;
76380;SDS011;65202;52.520;10.528;2023-08-17T05:45:59;6.80;;;5.20;;
76380;SDS011;65202;52.520;10.528;2023-08-17T05:48:26;6.90;;;5.57;;
76380;SDS011;65202;52.520;10.528;2023-08-17T05:50:55;8.30;;;5.35;;
76380;SDS011;65202;52.520;10.528;2023-08-17T05:53:23;7.38;;;5.38;;
76380;SDS011;65202;52.520;10.528;2023-08-17T05:55:50;6.28;;;5.47;;
76380;SDS011;65202;52.520;10.528;2023-08-17T05:58:18;10.10;;;5.55;;
76380;SDS011;65202;52.520;10.528;2023-08-17T06:00:45;6.68;;;5.40;;
76380;SDS011;65202;52.520;10.528;2023-08-17T06:03:12;7.22;;;5.22;;
76380;SDS011;65202;52.520;10.528;2023-08-17T06:05:39;9.23;;;5.72;;
76380;SDS011;65202;52.520;10.528;2023-08-17T06:08:07;6.88;;;5.32;;
76380;SDS011;65202;52.520;10.528;2023-08-17T06:10:35;7.65;;;5.75;;
76380;SDS011;65202;52.520;10.528;2023-08-17T06:13:02;10.32;;;5.22;;
76380;SDS011;65202;52.520;10.528;2023-08-17T06:15:30;7.85;;;5.07;;
76380;SDS011;65202;52.520;10.528;2023-08-17T06:17:57;8.35;;;5.70;;
76380;SDS011;65202;52.520;10.528;2023-08-17T06:20:24;7.72;;;5.47;;
76380;SDS011;65202;52.520;10.528;2023-08-17T06:22:52;9.30;;;5.80;;
76380;SDS011;65202;52.520;10.528;2023-08-17T06:25:19;9.18;;;5.85;;
76380;SDS011;65202;52.520;10.528;2023-08-17T06:27:48;8.27;;;5.95;;
76380;SDS011;65202;52.520;10.528;2023-08-17T06:30:16;7.03;;;6.07;;
76380;SDS011;65202;52.520;10.528;2023-08-17T06:32:44;9.00;;;5.50;;
76380;SDS011;65202;52.520;10.528;2023-08-17T06:35:11;9.93;;;5.93;;
76380;SDS011;65202;52.520;10.528;2023-08-17T06:37:39;7.90;;;6.00;;
76380;SDS011;65202;52.520;10.528;2023-08-17T06:40:06;11.40;;;5.90;;
76380;SDS011;65202;52.520;10.528;2023-08-17T06:42:36;9.85;;;6.38;;
76380;SDS011;65202;52.520;10.528;2023-08-17T06:45:03;10.52;;;6.55;;
76380;SDS011;65202;52.520;10.528;2023-08-17T06:47:31;8.35;;;6.40;;
76380;SDS011;65202;52.520;10.528;2023-08-17T06:49:59;8.02;;;6.25;;
76380;SDS011;65202;52.520;10.528;2023-08-17T06:52:26;9.00;;;6.40;;
76380;SDS011;65202;52.520;10.528;2023-08-17T06:54:53;10.52;;;6.45;;
76380;SDS011;65202;52.520;10.528;2023-08-17T06:57:21;9.60;;;6.43;;
76380;SDS011;65202;52.520;10.528;2023-08-17T06:59:48;11.93;;;6.20;;
76380;SDS011;65202;52.520;10.528;2023-08-17T07:02:15;12.02;;;6.78;;
76380;SDS011;65202;52.520;10.528;2023-08-17T07:04:43;11.80;;;6.63;;
76380;SDS011;65202;52.520;10.528;2023-08-17T07:07:10;11.73;;;6.90;;
76380;SDS011;65202;52.520;10.528;2023-08-17T07:09:37;11.90;;;6.95;;
76380;SDS011;65202;52.520;10.528;2023-08-17T07:12:05;10.23;;;7.00;;
76380;SDS011;65202;52.520;10.528;2023-08-17T07:14:32;9.65;;;6.10;;
76380;SDS011;65202;52.520;10.528;2023-08-17T07:17:00;10.63;;;6.53;;
76380;SDS011;65202;52.520;10.528;2023-08-17T07:19:27;8.57;;;5.82;;
76380;SDS011;65202;52.520;10.528;2023-08-17T07:22:14;8.45;;;5.93;;
76380;SDS011;65202;52.520;10.528;2023-08-17T07:24:43;10.23;;;6.35;;
76380;SDS011;65202;52.520;10.528;2023-08-17T07:27:10;8.63;;;6.18;;
76380;SDS011;65202;52.520;10.528;2023-08-17T07:29:38;8.30;;;6.15;;
76380;SDS011;65202;52.520;10.528;2023-08-17T07:32:05;6.72;;;4.90;;
76380;SDS011;65202;52.520;10.528;2023-08-17T07:34:32;7.07;;;5.50;;
76380;SDS011;65202;52.520;10.528;2023-08-17T07:37:00;7.35;;;5.10;;
76380;SDS011;65202;52.520;10.528;2023-08-17T07:39:27;8.05;;;5.20;;
76380;SDS011;65202;52.520;10.528;2023-08-17T07:41:54;6.95;;;4.38;;
76380;SDS011;65202;52.520;10.528;2023-08-17T07:44:21;5.00;;;4.10;;
76380;SDS011;65202;52.520;10.528;2023-08-17T07:46:49;5.55;;;4.50;;
76380;SDS011;65202;52.520;10.528;2023-08-17T07:49:16;6.78;;;4.93;;
76380;SDS011;65202;52.520;10.528;2023-08-17T07:51:58;6.40;;;5.53;;
76380;SDS011;65202;52.520;10.528;2023-08-17T07:54:25;7.88;;;5.18;;
76380;SDS011;65202;52.520;10.528;2023-08-17T07:56:52;6.03;;;4.93;;
76380;SDS011;65202;52.520;10.528;2023-08-17T07:59:20;4.63;;;4.22;;
76380;SDS011;65202;52.520;10.528;2023-08-17T08:01:47;6.78;;;4.63;;
76380;SDS011;65202;52.520;10.528;2023-08-17T08:04:14;5.30;;;4.45;;
76380;SDS011;65202;52.520;10.528;2023-08-17T08:06:42;6.95;;;5.35;;
76380;SDS011;65202;52.520;10.528;2023-08-17T08:09:09;5.72;;;4.88;;
76380;SDS011;65202;52.520;10.528;2023-08-17T08:11:36;6.18;;;5.32;;
76380;SDS011;65202;52.520;10.528;2023-08-17T08:14:04;5.70;;;4.88;;
76380;SDS011;65202;52.520;10.528;2023-08-17T08:16:31;5.85;;;4.63;;
76380;SDS011;65202;52.520;10.528;2023-08-17T08:18:59;5.13;;;4.25;;
76380;SDS011;65202;52.520;10.528;2023-08-17T08:21:26;5.43;;;3.88;;
76380;SDS011;65202;52.520;10.528;2023-08-17T08:23:54;5.57;;;4.60;;
76380;SDS011;65202;52.520;10.528;2023-08-17T08:26:22;7.15;;;5.43;;
76380;SDS011;65202;52.520;10.528;2023-08-17T08:28:50;11.45;;;5.90;;
76380;SDS011;65202;52.520;10.528;2023-08-17T08:31:17;9.20;;;6.65;;
76380;SDS011;65202;52.520;10.528;2023-08-17T08:33:44;8.23;;;6.25;;
76380;SDS011;65202;52.520;10.528;2023-08-17T08:36:11;7.05;;;5.60;;
76380;SDS011;65202;52.520;10.528;2023-08-17T08:38:39;7.93;;;5.18;;
76380;SDS011;65202;52.520;10.528;2023-08-17T08:41:06;6.80;;;5.05;;
76380;SDS011;65202;52.520;10.528;2023-08-17T08:43:35;6.53;;;4.35;;
76380;SDS011;65202;52.520;10.528;2023-08-17T08:46:03;7.72;;;4.30;;
76380;SDS011;65202;52.520;10.528;2023-08-17T08:48:31;7.05;;;4.15;;
76380;SDS011;65202;52.520;10.528;2023-08-17T08:50:59;6.53;;;3.65;;
76380;SDS011;65202;52.520;10.528;2023-08-17T08:53:35;5.95;;;3.65;;
76380;SDS011;65202;52.520;10.528;2023-08-17T08:56:07;6.32;;;3.80;;
76380;SDS011;65202;52.520;10.528;2023-08-17T08:58:40;10.13;;;3.63;;
76380;SDS011;65202;52.520;10.528;2023-08-17T09:01:09;5.10;;;3.10;;
76380;SDS011;65202;52.520;10.528;2023-08-17T09:03:37;6.20;;;3.45;;
76380;SDS011;65202;52.520;10.528;2023-08-17T09:06:05;6.47;;;3.50;;
76380;SDS011;65202;52.520;10.528;2023-08-17T09:08:38;7.40;;;3.60;;
76380;SDS011;65202;52.520;10.528;2023-08-17T09:11:05;6.38;;;3.83;;
76380;SDS011;65202;52.520;10.528;2023-08-17T09:13:32;6.72;;;3.60;;
76380;SDS011;65202;52.520;10.528;2023-08-17T09:16:00;10.45;;;3.60;;
76380;SDS011;65202;52.520;10.528;2023-08-17T09:18:34;4.15;;;3.22;;
76380;SDS011;65202;52.520;10.528;2023-08-17T09:21:05;8.05;;;3.33;;
76380;SDS011;65202;52.520;10.528;2023-08-17T09:23:32;5.85;;;3.58;;
76380;SDS011;65202;52.520;10.528;2023-08-17T09:26:09;5.20;;;3.28;;
76380;SDS011;65202;52.520;10.528;2023-08-17T09:28:38;7.97;;;3.50;;
76380;SDS011;65202;52.520;10.528;2023-08-17T09:31:06;7.00;;;3.10;;
76380;SDS011;65202;52.520;10.528;2023-08-17T09:33:33;6.32;;;3.08;;
76380;SDS011;65202;52.520;10.528;2023-08-17T09:36:01;6.18;;;2.85;;
76380;SDS011;65202;52.520;10.528;2023-08-17T09:38:28;5.05;;;3.35;;
76380;SDS011;65202;52.520;10.528;2023-08-17T09:40:57;4.50;;;3.15;;
76380;SDS011;65202;52.520;10.528;2023-08-17T09:43:25;5.13;;;3.10;;
76380;SDS011;65202;52.520;10.528;2023-08-17T09:45:56;5.60;;;3.33;;
76380;SDS011;65202;52.520;10.528;2023-08-17T09:48:24;8.15;;;3.58;;
76380;SDS011;65202;52.520;10.528;2023-08-17T09:50:53;9.02;;;3.47;;
76380;SDS011;65202;52.520;10.528;2023-08-17T09:53:24;3.37;;;2.93;;
76380;SDS011;65202;52.520;10.528;2023-08-17T09:55:52;5.85;;;3.25;;
76380;SDS011;65202;52.520;10.528;2023-08-17T09:58:22;5.40;;;2.85;;
76380;SDS011;65202;52.520;10.528;2023-08-17T10:00:49;6.45;;;2.90;;
76380;SDS011;65202;52.520;10.528;2023-08-17T10:03:19;5.05;;;2.75;;
76380;SDS011;65202;52.520;10.528;2023-08-17T10:05:48;3.65;;;2.60;;
76380;SDS011;65202;52.520;10.528;2023-08-17T10:08:28;5.78;;;2.80;;
76380;SDS011;65202;52.520;10.528;2023-08-17T10:10:58;10.50;;;2.90;;
76380;SDS011;65202;52.520;10.528;2023-08-17T10:13:56;8.55;;;2.90;;
76380;SDS011;65202;52.520;10.528;2023-08-17T10:16:27;4.63;;;3.08;;
76380;SDS011;65202;52.520;10.528;2023-08-17T10:21:59;3.47;;;2.58;;
76380;SDS011;65202;52.520;10.528;2023-08-17T10:24:38;6.72;;;3.05;;
76380;SDS011;65202;52.520;10.528;2023-08-17T10:27:12;5.78;;;3.40;;
76380;SDS011;65202;52.520;10.528;2023-08-17T10:29:40;5.93;;;2.80;;
76380;SDS011;65202;52.520;10.528;2023-08-17T10:32:10;5.53;;;2.70;;
76380;SDS011;65202;52.520;10.528;2023-08-17T10:34:42;4.38;;;2.60;;
76380;SDS011;65202;52.520;10.528;2023-08-17T10:37:11;6.05;;;3.00;;
76380;SDS011;65202;52.520;10.528;2023-08-17T10:39:47;4.82;;;2.97;;
76380;SDS011;65202;52.520;10.528;2023-08-17T10:42:18;5.85;;;3.10;;
76380;SDS011;65202;52.520;10.528;2023-08-17T10:45:48;2.97;;;2.63;;
76380;SDS011;65202;52.520;10.528;2023-08-17T10:47:59;6.32;;;2.92;;
76380;SDS011;65202;52.520;10.528;2023-08-17T10:51:00;5.03;;;2.90;;
76380;SDS011;65202;52.520;10.528;2023-08-17T10:53:37;5.85;;;2.80;;
76380;SDS011;65202;52.520;10.528;2023-08-17T10:56:13;5.05;;;3.03;;
76380;SDS011;65202;52.520;10.528;2023-08-17T10:58:43;4.72;;;2.85;;
76380;SDS011;65202;52.520;10.528;2023-08-17T11:01:11;4.97;;;3.03;;
76380;SDS011;65202;52.520;10.528;2023-08-17T11:03:38;5.53;;;2.88;;
76380;SDS011;65202;52.520;10.528;2023-08-17T11:06:15;4.95;;;2.92;;
76380;SDS011;65202;52.520;10.528;2023-08-17T11:08:51;6.22;;;2.80;;
76380;SDS011;65202;52.520;10.528;2023-08-17T11:11:23;5.15;;;2.97;;
76380;SDS011;65202;52.520;10.528;2023-08-17T11:13:52;8.10;;;2.65;;
76380;SDS011;65202;52.520;10.528;2023-08-17T11:16:23;7.47;;;2.80;;
76380;SDS011;65202;52.520;10.528;2023-08-17T11:18:51;6.18;;;2.85;;
76380;SDS011;65202;52.520;10.528;2023-08-17T11:21:19;6.85;;;2.92;;
76380;SDS011;65202;52.520;10.528;2023-08-17T11:23:47;7.45;;;2.78;;
76380;SDS011;65202;52.520;10.528;2023-08-17T11:26:15;7.30;;;2.88;;
76380;SDS011;65202;52.520;10.528;2023-08-17T11:28:44;3.67;;;2.90;;
76380;SDS011;65202;52.520;10.528;2023-08-17T11:31:13;6.90;;;2.78;;
76380;SDS011;65202;52.520;10.528;2023-08-17T11:33:44;4.30;;;3.10;;
76380;SDS011;65202;52.520;10.528;2023-08-17T11:36:14;4.03;;;2.80;;
76380;SDS011;65202;52.520;10.528;2023-08-17T11:38:42;5.68;;;3.20;;
76380;SDS011;65202;52.520;10.528;2023-08-17T11:41:11;4.63;;;2.80;;
76380;SDS011;65202;52.520;10.528;2023-08-17T11:43:42;7.05;;;2.63;;
76380;SDS011;65202;52.520;10.528;2023-08-17T11:46:09;4.30;;;2.72;;
76380;SDS011;65202;52.520;10.528;2023-08-17T11:48:37;6.70;;;2.95;;
76380;SDS011;65202;52.520;10.528;2023-08-17T11:51:04;8.23;;;3.20;;
76380;SDS011;65202;52.520;10.528;2023-08-17T11:53:35;4.50;;;2.75;;
76380;SDS011;65202;52.520;10.528;2023-08-17T11:56:04;5.00;;;3.00;;
76380;SDS011;65202;52.520;10.528;2023-08-17T11:58:39;7.32;;;3.53;;
76380;SDS011;65202;52.520;10.528;2023-08-17T12:01:12;5.85;;;3.63;;
76380;SDS011;65202;52.520;10.528;2023-08-17T12:03:44;9.65;;;3.53;;
76380;SDS011;65202;52.520;10.528;2023-08-17T12:06:12;5.03;;;3.45;;
76380;SDS011;65202;52.520;10.528;2023-08-17T12:08:42;8.68;;;3.15;;
76380;SDS011;65202;52.520;10.528;2023-08-17T12:11:15;5.57;;;3.10;;
76380;SDS011;65202;52.520;10.528;2023-08-17T12:13:50;6.93;;;3.20;;
76380;SDS011;65202;52.520;10.528;2023-08-17T12:16:18;6.15;;;3.30;;
76380;SDS011;65202;52.520;10.528;2023-08-17T12:18:47;5.05;;;3.17;;
76380;SDS011;65202;52.520;10.528;2023-08-17T12:21:22;8.03;;;3.00;;
76380;SDS011;65202;52.520;10.528;2023-08-17T12:23:50;7.72;;;3.67;;
76380;SDS011;65202;52.520;10.528;2023-08-17T12:26:21;5.00;;;2.70;;
76380;SDS011;65202;52.520;10.528;2023-08-17T12:28:49;6.32;;;3.35;;
76380;SDS011;65202;52.520;10.528;2023-08-17T12:31:21;6.63;;;3.05;;
76380;SDS011;65202;52.520;10.528;2023-08-17T12:33:50;8.65;;;3.25;;
76380;SDS011;65202;52.520;10.528;2023-08-17T12:36:18;6.90;;;3.35;;
76380;SDS011;65202;52.520;10.528;2023-08-17T12:38:47;8.02;;;3.35;;
76380;SDS011;65202;52.520;10.528;2023-08-17T12:41:15;7.40;;;3.25;;
76380;SDS011;65202;52.520;10.528;2023-08-17T12:43:44;8.95;;;3.63;;
76380;SDS011;65202;52.520;10.528;2023-08-17T12:46:11;6.97;;;3.13;;
76380;SDS011;65202;52.520;10.528;2023-08-17T12:48:39;7.47;;;3.05;;
76380;SDS011;65202;52.520;10.528;2023-08-17T12:51:06;8.48;;;3.38;;
76380;SDS011;65202;52.520;10.528;2023-08-17T12:53:33;6.95;;;3.20;;
76380;SDS011;65202;52.520;10.528;2023-08-17T12:56:00;5.85;;;3.20;;
76380;SDS011;65202;52.520;10.528;2023-08-17T12:58:28;5.35;;;3.00;;
76380;SDS011;65202;52.520;10.528;2023-08-17T13:00:55;4.63;;;3.00;;
76380;SDS011;65202;52.520;10.528;2023-08-17T13:03:23;6.47;;;3.33;;
76380;SDS011;65202;52.520;10.528;2023-08-17T13:05:50;9.48;;;3.00;;
76380;SDS011;65202;52.520;10.528;2023-08-17T13:08:18;6.13;;;3.00;;
76380;SDS011;65202;52.520;10.528;2023-08-17T13:10:45;7.35;;;3.60;;
76380;SDS011;65202;52.520;10.528;2023-08-17T13:13:12;5.28;;;3.20;;
76380;SDS011;65202;52.520;10.528;2023-08-17T13:15:39;5.30;;;2.92;;
76380;SDS011;65202;52.520;10.528;2023-08-17T13:18:08;7.20;;;3.08;;
76380;SDS011;65202;52.520;10.528;2023-08-17T13:20:36;6.55;;;3.45;;
76380;SDS011;65202;52.520;10.528;2023-08-17T13:23:05;9.82;;;3.55;;
76380;SDS011;65202;52.520;10.528;2023-08-17T13:25:33;6.32;;;3.10;;
76380;SDS011;65202;52.520;10.528;2023-08-17T13:28:00;10.02;;;4.53;;
76380;SDS011;65202;52.520;10.528;2023-08-17T13:30:27;10.15;;;4.40;;
76380;SDS011;65202;52.520;10.528;2023-08-17T13:32:55;6.50;;;3.30;;
76380;SDS011;65202;52.520;10.528;2023-08-17T13:35:23;6.18;;;3.50;;
76380;SDS011;65202;52.520;10.528;2023-08-17T13:37:51;6.32;;;3.30;;
76380;SDS011;65202;52.520;10.528;2023-08-17T13:40:20;6.05;;;3.75;;
76380;SDS011;65202;52.520;10.528;2023-08-17T13:42:48;4.95;;;3.40;;
76380;SDS011;65202;52.520;10.528;2023-08-17T13:45:15;9.63;;;3.50;;
76380;SDS011;65202;52.520;10.528;2023-08-17T13:47:43;9.07;;;3.90;;
76380;SDS011;65202;52.520;10.528;2023-08-17T13:50:10;9.60;;;3.72;;
76380;SDS011;65202;52.520;10.528;2023-08-17T13:52:37;9.15;;;3.63;;
76380;SDS011;65202;52.520;10.528;2023-08-17T13:55:05;12.60;;;3.83;;
76380;SDS011;65202;52.520;10.528;2023-08-17T13:57:33;9.13;;;3.90;;
76380;SDS011;65202;52.520;10.528;2023-08-17T14:00:00;10.23;;;4.35;;
76380;SDS011;65202;52.520;10.528;2023-08-17T14:02:27;7.47;;;4.22;;
76380;SDS011;65202;52.520;10.528;2023-08-17T14:04:57;11.43;;;4.57;;
76380;SDS011;65202;52.520;10.528;2023-08-17T14:07:25;14.85;;;4.45;;
76380;SDS011;65202;52.520;10.528;2023-08-17T14:09:52;7.55;;;4.88;;
76380;SDS011;65202;52.520;10.528;2023-08-17T14:12:35;10.60;;;3.88;;
76380;SDS011;65202;52.520;10.528;2023-08-17T14:15:02;5.28;;;4.00;;
76380;SDS011;65202;52.520;10.528;2023-08-17T14:17:30;8.18;;;4.40;;
76380;SDS011;65202;52.520;10.528;2023-08-17T14:19:58;8.10;;;4.18;;
76380;SDS011;65202;52.520;10.528;2023-08-17T14:22:25;8.75;;;4.03;;
76380;SDS011;65202;52.520;10.528;2023-08-17T14:24:53;5.75;;;4.10;;
76380;SDS011;65202;52.520;10.528;2023-08-17T14:27:20;7.18;;;4.07;;
76380;SDS011;65202;52.520;10.528;2023-08-17T14:29:47;10.45;;;4.07;;
76380;SDS011;65202;52.520;10.528;2023-08-17T14:32:15;8.23;;;4.30;;
76380;SDS011;65202;52.520;10.528;2023-08-17T14:34:42;7.95;;;4.40;;
76380;SDS011;65202;52.520;10.528;2023-08-17T14:37:09;9.32;;;4.32;;
76380;SDS011;65202;52.520;10.528;2023-08-17T14:39:36;6.68;;;4.00;;
76380;SDS011;65202;52.520;10.528;2023-08-17T14:42:04;6.88;;;3.90;;
76380;SDS011;65202;52.520;10.528;2023-08-17T14:44:32;5.72;;;4.00;;
76380;SDS011;65202;52.520;10.528;2023-08-17T14:46:59;9.52;;;4.10;;
76380;SDS011;65202;52.520;10.528;2023-08-17T14:49:26;6.82;;;4.43;;